createdAt,value
2023-05-15T00:01:43.388Z,34.99
2023-05-15T00:04:16.853Z,35.05
2023-05-15T00:06:44.632Z,35.10
2023-05-15T00:09:18.841Z,35.12
2023-05-15T00:11:52.268Z,35.10
2023-05-15T00:14:25.656Z,35.07
2023-05-15T00:17:03.061Z,35.05
2023-05-15T00:19:36.949Z,35.05
2023-05-15T00:21:59.523Z,35.03
2023-05-15T00:24:23.328Z,34.95
2023-05-15T00:26:47.367Z,34.89
2023-05-15T00:29:21.034Z,34.89
2023-05-15T00:31:55.121Z,34.91
2023-05-15T00:34:30.045Z,34.94
2023-05-15T00:37:04.702Z,34.94
2023-05-15T00:39:38.906Z,34.92
2023-05-15T00:42:03.622Z,34.88
2023-05-15T00:44:28.876Z,34.85
2023-05-15T00:46:52.748Z,34.77
2023-05-15T00:49:28.686Z,34.62
2023-05-15T00:51:54.322Z,34.54
2023-05-15T00:54:20.086Z,34.55
2023-05-15T00:56:55.938Z,34.58
2023-05-15T00:59:19.468Z,34.60
2023-05-15T01:01:53.507Z,34.59
2023-05-15T01:04:27.380Z,34.59
2023-05-15T01:06:58.412Z,34.53
2023-05-15T01:09:27.132Z,34.47
2023-05-15T01:12:02.554Z,34.45
2023-05-15T01:14:28.646Z,34.44
2023-05-15T01:17:02.694Z,34.42
2023-05-15T01:19:37.017Z,34.37
2023-05-15T01:22:45.179Z,34.31
2023-05-15T01:25:56.001Z,34.26
2023-05-15T01:28:34.334Z,34.12
2023-05-15T01:31:12.575Z,34.01
2023-05-15T01:33:51.282Z,33.93
2023-05-15T01:36:30.385Z,33.83
2023-05-15T01:39:06.854Z,33.79
2023-05-15T01:41:45.752Z,33.74
2023-05-15T01:44:22.953Z,33.71
2023-05-15T01:46:53.338Z,33.65
2023-05-15T01:49:30.956Z,33.64
2023-05-15T01:51:58.388Z,33.60
2023-05-15T01:54:33.316Z,33.53
2023-05-15T01:57:00.933Z,33.51
2023-05-15T01:59:26.653Z,33.46
2023-05-15T02:02:02.390Z,33.37
2023-05-15T02:04:36.735Z,33.33
2023-05-15T02:07:16.442Z,33.31
2023-05-15T02:09:41.803Z,33.25
2023-05-15T02:12:19.791Z,33.15
2023-05-15T02:14:58.611Z,33.09
2023-05-15T02:17:32.620Z,33.06
2023-05-15T02:20:11.591Z,33.02
2023-05-15T02:22:38.201Z,33.01
2023-05-15T02:24:53.417Z,33.00
2023-05-15T02:27:17.408Z,32.94
2023-05-15T02:29:58.812Z,32.87
2023-05-15T02:32:43.961Z,32.76
2023-05-15T02:35:22.694Z,32.68
2023-05-15T02:38:00.137Z,32.62
2023-05-15T02:40:24.582Z,32.56
2023-05-15T02:42:53.228Z,32.49
2023-05-15T02:45:23.156Z,32.43
2023-05-15T02:47:47.072Z,32.38
2023-05-15T02:50:21.850Z,32.29
2023-05-15T02:52:50.131Z,32.19
2023-05-15T02:55:24.775Z,32.10
2023-05-15T02:57:53.545Z,32.01
2023-05-15T03:00:52.466Z,31.91
2023-05-15T03:02:47.706Z,31.81
2023-05-15T03:05:22.265Z,31.73
2023-05-15T03:07:45.502Z,31.62
2023-05-15T03:10:12.035Z,31.52
2023-05-15T03:13:05.877Z,31.41
2023-05-15T03:15:39.529Z,31.26
2023-05-15T03:21:02.712Z,30.97
2023-05-15T03:23:34.596Z,30.85
2023-05-15T03:26:00.768Z,30.72
2023-05-15T03:28:33.553Z,30.60
2023-05-15T03:31:00.720Z,30.46
2023-05-15T03:33:35.071Z,30.33
2023-05-15T03:35:58.702Z,30.21
2023-05-15T03:38:32.495Z,30.08
2023-05-15T03:40:56.130Z,29.95
2023-05-15T03:43:20.378Z,29.79
2023-05-15T03:45:45.508Z,29.64
2023-05-15T03:48:08.577Z,29.52
2023-05-15T03:50:43.781Z,29.39
2023-05-15T03:53:17.140Z,29.26
2023-05-15T03:55:41.936Z,29.14
2023-05-15T03:57:59.082Z,29.02
2023-05-15T04:00:32.393Z,28.89
2023-05-15T04:03:05.853Z,28.75
2023-05-15T04:05:25.942Z,28.63
2023-05-15T04:08:13.589Z,28.50
2023-05-15T04:10:39.013Z,28.39
2023-05-15T04:13:05.189Z,28.29
2023-05-15T04:15:32.962Z,28.19
2023-05-15T04:18:06.664Z,28.08
2023-05-15T04:20:34.898Z,27.99
2023-05-15T04:23:07.125Z,27.90
2023-05-15T04:25:40.902Z,27.81
2023-05-15T04:28:16.229Z,27.72
2023-05-15T04:30:50.604Z,27.64
2023-05-15T04:33:25.069Z,27.57
2023-05-15T04:35:54.317Z,27.52
2023-05-15T04:38:10.715Z,27.48
2023-05-15T04:43:14.301Z,27.42
2023-05-15T04:45:38.749Z,27.37
2023-05-15T04:48:06.429Z,27.33
2023-05-15T04:50:39.909Z,27.27
2023-05-15T04:52:59.453Z,27.24
2023-05-15T04:55:33.812Z,27.23
2023-05-15T04:57:55.026Z,27.20
2023-05-15T05:00:30.488Z,27.16
2023-05-15T05:03:05.898Z,27.11
2023-05-15T05:05:32.530Z,27.06
2023-05-15T05:07:57.546Z,27.02
2023-05-15T05:10:31.754Z,26.98
2023-05-15T05:13:06.353Z,26.93
2023-05-15T05:15:29.093Z,26.87
2023-05-15T05:18:04.279Z,26.81
2023-05-15T05:20:37.843Z,26.77
2023-05-15T05:23:11.881Z,26.72
2023-05-15T05:25:45.848Z,26.67
2023-05-15T05:28:20.084Z,26.63
2023-05-15T05:30:54.776Z,26.58
2023-05-15T05:33:29.123Z,26.52
2023-05-15T05:35:52.943Z,26.45
2023-05-15T05:38:27.637Z,26.39
2023-05-15T05:41:02.490Z,26.32
2023-05-15T05:43:34.686Z,26.27
2023-05-15T05:45:57.512Z,26.19
2023-05-15T05:51:05.698Z,26.10
2023-05-15T05:53:40.058Z,26.06
2023-05-15T05:56:14.086Z,26.02
2023-05-15T05:58:48.676Z,25.98
2023-05-15T06:01:25.947Z,25.94
2023-05-15T06:03:59.792Z,25.89
2023-05-15T06:06:33.921Z,25.85
2023-05-15T06:09:00.726Z,25.83
2023-05-15T06:11:34.577Z,25.83
2023-05-15T06:14:09.555Z,25.79
2023-05-15T06:16:43.288Z,25.76
2023-05-15T06:19:18.344Z,25.74
2023-05-15T06:21:45.736Z,25.72
2023-05-15T06:24:08.503Z,25.70
2023-05-15T06:26:28.794Z,25.69
2023-05-15T06:29:03.855Z,25.69
2023-05-15T06:31:26.930Z,25.70
2023-05-15T06:34:00.792Z,25.71
2023-05-15T06:36:35.112Z,25.73
2023-05-15T06:39:11.983Z,25.71
2023-05-15T06:41:44.424Z,25.70
2023-05-15T06:44:17.932Z,25.70
2023-05-15T06:46:54.589Z,25.65
2023-05-15T06:49:28.692Z,25.61
2023-05-15T06:52:02.753Z,25.56
2023-05-15T06:54:25.826Z,25.54
2023-05-15T06:57:01.152Z,25.51
2023-05-15T06:59:36.955Z,25.50
2023-05-15T07:02:10.882Z,25.51
2023-05-15T07:04:45.571Z,25.57
2023-05-15T07:07:08.179Z,25.62
2023-05-15T07:09:42.326Z,25.64
2023-05-15T07:12:17.592Z,25.67
2023-05-15T07:14:52.016Z,25.68
2023-05-15T07:17:26.605Z,25.71
2023-05-15T07:19:54.071Z,25.72
2023-05-15T07:22:31.427Z,25.75
2023-05-15T07:25:09.102Z,25.78
2023-05-15T07:27:43.013Z,25.82
2023-05-15T07:30:21.274Z,25.83
2023-05-15T07:32:55.478Z,25.82
2023-05-15T07:35:29.201Z,25.82
2023-05-15T07:38:04.458Z,25.82
2023-05-15T07:40:31.302Z,25.87
2023-05-15T07:42:54.041Z,25.87
2023-05-15T07:45:28.676Z,25.88
2023-05-15T07:48:02.613Z,25.94
2023-05-15T07:50:38.081Z,26.04
2023-05-15T07:53:12.408Z,26.13
2023-05-15T07:55:47.734Z,26.17
2023-05-15T07:58:21.952Z,26.21
2023-05-15T08:00:57.653Z,26.26
2023-05-15T08:03:31.854Z,26.33
2023-05-15T08:06:06.077Z,26.39
2023-05-15T08:08:40.521Z,26.44
2023-05-15T08:11:14.418Z,26.48
2023-05-15T08:13:48.081Z,26.51
2023-05-15T08:16:22.015Z,26.54
2023-05-15T08:18:59.801Z,26.53
2023-05-15T08:21:26.253Z,26.50
2023-05-15T08:24:00.213Z,26.47
2023-05-15T08:26:34.229Z,26.46
2023-05-15T08:29:08.102Z,26.45
2023-05-15T08:31:41.705Z,26.43
2023-05-15T08:34:15.600Z,26.38
2023-05-15T08:36:42.338Z,26.34
2023-05-15T08:39:16.972Z,26.32
2023-05-15T08:41:56.416Z,26.29
2023-05-15T08:44:29.740Z,26.29
2023-05-15T08:47:04.742Z,26.27
2023-05-15T08:49:47.511Z,26.26
2023-05-15T08:52:22.238Z,26.24
2023-05-15T08:54:58.039Z,26.24
2023-05-15T08:57:33.072Z,26.27
2023-05-15T09:00:08.949Z,26.28
2023-05-15T09:02:35.722Z,26.29
2023-05-15T09:05:12.378Z,26.29
2023-05-15T09:07:48.290Z,26.31
2023-05-15T09:10:22.518Z,26.37
2023-05-15T09:12:53.882Z,26.42
2023-05-15T09:15:26.157Z,26.45
2023-05-15T09:18:01.551Z,26.46
2023-05-15T09:20:35.972Z,25.96
2023-05-15T09:23:03.520Z,24.82
2023-05-15T09:25:54.100Z,23.78
2023-05-15T09:28:39.759Z,22.62
2023-05-15T09:31:13.193Z,21.67
2023-05-15T09:33:41.903Z,20.97
2023-05-15T09:36:11.313Z,20.36
2023-05-15T09:38:50.566Z,19.85
2023-05-15T09:41:31.636Z,19.42
2023-05-15T09:44:04.974Z,19.05
2023-05-15T09:46:41.848Z,18.78
2023-05-15T09:49:17.083Z,18.52
2023-05-15T09:51:53.436Z,18.32
2023-05-15T09:54:31.359Z,18.10
2023-05-15T09:57:15.062Z,17.94
2023-05-15T09:59:53.012Z,17.79
2023-05-15T10:02:33.372Z,17.68
2023-05-15T10:05:15.189Z,17.55
2023-05-15T10:07:39.416Z,17.47
2023-05-15T10:10:03.350Z,17.41
2023-05-15T10:12:37.932Z,17.38
2023-05-15T10:15:14.817Z,17.38
2023-05-15T10:17:51.737Z,17.37
2023-05-15T10:20:27.448Z,17.34
2023-05-15T10:23:02.002Z,17.31
2023-05-15T10:25:42.361Z,17.15
2023-05-15T10:28:17.849Z,16.98
2023-05-15T10:30:42.885Z,16.85
2023-05-15T10:33:18.573Z,16.78
2023-05-15T10:35:54.532Z,16.67
2023-05-15T10:38:22.785Z,16.55
2023-05-15T10:40:47.885Z,16.42
2023-05-15T10:43:18.676Z,16.32
2023-05-15T10:45:43.085Z,16.22
2023-05-15T10:48:13.617Z,16.11
2023-05-15T10:50:39.792Z,16.03
2023-05-15T10:53:15.991Z,15.97
2023-05-15T10:55:51.776Z,15.89
2023-05-15T10:58:29.341Z,15.85
2023-05-15T11:01:04.390Z,15.81
2023-05-15T11:03:49.669Z,15.77
2023-05-15T11:06:19.070Z,15.75
2023-05-15T11:08:46.401Z,15.74
2023-05-15T11:11:10.790Z,15.72
2023-05-15T11:13:53.332Z,15.73
2023-05-15T11:17:02.683Z,15.71
2023-05-15T11:19:59.423Z,15.63
2023-05-15T11:22:39.860Z,15.51
2023-05-15T11:25:15.016Z,15.40
2023-05-15T11:27:49.689Z,15.29
2023-05-15T11:30:26.992Z,15.21
2023-05-15T11:33:04.967Z,15.13
2023-05-15T11:35:30.632Z,15.09
2023-05-15T11:38:05.952Z,15.06
2023-05-15T11:40:50.393Z,15.03
2023-05-15T11:43:29.037Z,14.98
2023-05-15T11:45:54.140Z,14.94
2023-05-15T11:48:40.543Z,14.87
2023-05-15T11:51:23.060Z,14.82
2023-05-15T11:53:58.150Z,14.75
2023-05-15T11:56:32.730Z,14.70
2023-05-15T11:59:07.532Z,14.67
2023-05-15T12:01:48.939Z,14.63
2023-05-15T12:04:24.745Z,14.56
2023-05-15T12:07:00.940Z,14.50
2023-05-15T12:09:37.416Z,14.47
2023-05-15T12:12:16.144Z,14.43
2023-05-15T12:14:49.970Z,14.37
2023-05-15T12:17:24.557Z,14.31
2023-05-15T12:19:49.769Z,14.31
2023-05-15T12:22:23.978Z,14.32
2023-05-15T12:24:48.873Z,14.31
2023-05-15T12:27:24.758Z,14.30
2023-05-15T12:29:59.434Z,14.33
2023-05-15T12:32:35.029Z,14.34
2023-05-15T12:35:11.365Z,14.33
2023-05-15T12:37:45.829Z,14.35
2023-05-15T12:40:24.233Z,14.38
2023-05-15T12:43:00.196Z,14.37
2023-05-15T12:48:05.601Z,14.34
2023-05-15T12:50:40.998Z,14.34
2023-05-15T12:53:06.235Z,14.34
2023-05-15T12:55:44.745Z,14.37
2023-05-15T12:58:20.774Z,14.40
2023-05-15T13:00:59.930Z,14.42
2023-05-15T13:03:35.497Z,14.43
2023-05-15T13:06:10.123Z,14.42
2023-05-15T13:08:44.253Z,14.42
2023-05-15T13:11:17.470Z,14.41
2023-05-15T13:13:52.712Z,14.37
2023-05-15T13:16:28.079Z,14.31
2023-05-15T13:18:54.722Z,14.28
2023-05-15T13:21:17.668Z,14.29
2023-05-15T13:23:52.848Z,14.29
2023-05-15T13:26:26.476Z,14.33
2023-05-15T13:29:00.690Z,14.35
2023-05-15T13:31:35.888Z,14.38
2023-05-15T13:34:09.616Z,14.38
2023-05-15T13:36:32.523Z,14.35
2023-05-15T13:39:05.908Z,14.32
2023-05-15T13:41:32.863Z,14.29
2023-05-15T13:44:07.618Z,14.30
2023-05-15T13:46:42.144Z,14.24
2023-05-15T13:49:09.178Z,14.19
2023-05-15T13:51:43.322Z,14.17
2023-05-15T13:54:17.564Z,14.14
2023-05-15T13:56:45.544Z,14.15
2023-05-15T13:59:18.536Z,14.23
2023-05-15T14:01:41.686Z,14.26
2023-05-15T14:04:14.925Z,14.30
2023-05-15T14:06:49.827Z,14.33
2023-05-15T14:09:13.297Z,14.38
2023-05-15T14:11:46.731Z,14.38
2023-05-15T14:14:56.493Z,14.39
2023-05-15T14:17:09.220Z,14.44
2023-05-15T14:19:44.997Z,14.47
2023-05-15T14:22:18.559Z,14.47
2023-05-15T14:24:54.968Z,14.46
2023-05-15T14:27:31.119Z,14.46
2023-05-15T14:30:06.057Z,14.47
2023-05-15T14:32:33.648Z,14.46
2023-05-15T14:35:09.290Z,14.45
2023-05-15T14:37:44.347Z,14.43
2023-05-15T14:40:19.204Z,14.37
2023-05-15T14:42:52.180Z,14.33
2023-05-15T14:45:17.474Z,14.28
2023-05-15T14:47:39.848Z,14.29
2023-05-15T14:50:04.450Z,14.31
2023-05-15T14:52:38.122Z,14.36
2023-05-15T14:55:13.912Z,14.39
2023-05-15T14:57:50.447Z,14.43
2023-05-15T15:00:20.729Z,14.46
2023-05-15T15:02:47.673Z,14.46
2023-05-15T15:05:22.020Z,14.48
2023-05-15T15:08:10.115Z,14.47
2023-05-15T15:10:46.088Z,14.52
2023-05-15T15:13:18.860Z,14.56
2023-05-15T15:15:53.122Z,14.56
2023-05-15T15:18:26.847Z,14.57
2023-05-15T15:21:00.996Z,14.56
2023-05-15T15:23:35.080Z,14.57
2023-05-15T15:26:08.452Z,14.62
2023-05-15T15:28:43.411Z,14.67
2023-05-15T15:31:20.684Z,14.72
2023-05-15T15:33:55.159Z,14.78
2023-05-15T15:36:17.569Z,14.87
2023-05-15T15:38:52.264Z,14.93
2023-05-15T15:41:26.527Z,14.95
2023-05-15T15:43:59.661Z,14.95
2023-05-15T15:46:34.859Z,14.98
2023-05-15T15:49:09.090Z,15.01
2023-05-15T15:51:46.295Z,15.02
2023-05-15T15:54:20.310Z,15.04
2023-05-15T15:56:54.884Z,15.12
2023-05-15T15:59:29.450Z,15.14
2023-05-15T16:01:54.973Z,15.09
2023-05-15T16:04:28.912Z,14.99
2023-05-15T16:07:02.304Z,14.89
2023-05-15T16:09:37.781Z,14.84
2023-05-15T16:12:12.472Z,14.90
2023-05-15T16:14:47.093Z,14.99
2023-05-15T16:17:22.138Z,15.04
2023-05-15T16:19:58.152Z,15.04
2023-05-15T16:22:32.898Z,15.00
2023-05-15T16:25:08.754Z,14.97
2023-05-15T16:27:42.311Z,14.94
2023-05-15T16:30:19.155Z,14.92
2023-05-15T16:33:04.746Z,14.92
2023-05-15T16:35:24.484Z,14.93
2023-05-15T16:37:51.500Z,14.96
2023-05-15T16:40:28.417Z,15.07
2023-05-15T16:43:02.628Z,15.21
2023-05-15T16:45:32.025Z,15.33
2023-05-15T16:48:05.833Z,15.43
2023-05-15T16:50:41.831Z,15.53
2023-05-15T16:53:16.616Z,15.64
2023-05-15T16:55:51.905Z,15.69
2023-05-15T16:58:24.980Z,15.76
2023-05-15T17:00:59.340Z,15.80
2023-05-15T17:03:34.201Z,15.84
2023-05-15T17:06:09.411Z,15.92
2023-05-15T17:08:43.801Z,15.96
2023-05-15T17:11:17.784Z,16.02
2023-05-15T17:13:51.831Z,16.10
2023-05-15T17:16:27.214Z,16.16
2023-05-15T17:19:01.295Z,16.21
2023-05-15T17:21:35.458Z,16.23
2023-05-15T17:24:09.889Z,16.30
2023-05-15T17:26:43.612Z,16.37
2023-05-15T17:29:25.949Z,16.48
2023-05-15T17:32:00.791Z,16.57
2023-05-15T17:34:34.330Z,16.60
2023-05-15T17:37:09.003Z,16.65
2023-05-15T17:39:43.536Z,16.73
2023-05-15T17:42:19.084Z,16.79
2023-05-15T17:44:53.652Z,16.83
2023-05-15T17:47:21.120Z,16.88
2023-05-15T17:49:54.041Z,16.90
2023-05-15T17:52:28.182Z,16.91
2023-05-15T17:55:02.961Z,16.87
2023-05-15T17:57:36.866Z,16.84
2023-05-15T18:00:13.475Z,16.81
2023-05-15T18:02:28.720Z,16.80
2023-05-15T18:05:03.493Z,16.80
2023-05-15T18:07:30.868Z,16.82
2023-05-15T18:10:04.872Z,16.80
2023-05-15T18:12:40.337Z,16.80
2023-05-15T18:15:15.386Z,16.84
2023-05-15T18:17:49.644Z,16.91
2023-05-15T18:20:13.450Z,17.01
2023-05-15T18:22:47.194Z,17.09
2023-05-15T18:25:21.207Z,17.15
2023-05-15T18:27:55.804Z,17.26
2023-05-15T18:30:30.165Z,17.36
2023-05-15T18:33:05.035Z,17.44
2023-05-15T18:35:40.541Z,17.56
2023-05-15T18:38:14.182Z,17.64
2023-05-15T18:40:51.862Z,17.61
2023-05-15T18:43:25.842Z,17.62
2023-05-15T18:46:04.251Z,17.63
2023-05-15T18:48:38.369Z,17.61
2023-05-15T18:51:02.779Z,17.58
2023-05-15T18:53:37.468Z,17.55
2023-05-15T18:56:12.502Z,17.59
2023-05-15T18:58:48.631Z,17.70
2023-05-15T19:01:21.914Z,17.91
2023-05-15T19:03:55.380Z,18.09
2023-05-15T19:06:29.854Z,18.32
2023-05-15T19:09:02.985Z,18.53
2023-05-15T19:11:30.128Z,18.76
2023-05-15T19:14:03.825Z,18.88
2023-05-15T19:16:38.590Z,18.98
2023-05-15T19:19:06.716Z,19.01
2023-05-15T19:21:43.315Z,19.09
2023-05-15T19:24:21.522Z,19.15
2023-05-15T19:26:44.859Z,19.09
2023-05-15T19:29:18.673Z,19.06
2023-05-15T19:31:46.861Z,19.01
2023-05-15T19:37:08.041Z,18.95
2023-05-15T19:39:35.059Z,18.95
2023-05-15T19:42:08.908Z,18.92
2023-05-15T19:44:35.760Z,18.90
2023-05-15T19:46:57.695Z,18.90
2023-05-15T19:49:33.579Z,18.98
2023-05-15T19:51:57.613Z,19.10
2023-05-15T19:54:23.448Z,19.20
2023-05-15T19:56:57.368Z,19.27
2023-05-15T19:59:31.842Z,19.40
2023-05-15T20:04:54.901Z,19.55
2023-05-15T20:07:30.897Z,19.44
2023-05-15T20:10:04.803Z,19.30
2023-05-15T20:12:28.748Z,19.22
2023-05-15T20:15:02.827Z,19.16
2023-05-15T20:17:36.888Z,19.08
2023-05-15T20:20:00.761Z,18.97
2023-05-15T20:22:35.947Z,18.83
2023-05-15T20:25:10.503Z,18.67
2023-05-15T20:27:44.700Z,18.47
2023-05-15T20:30:19.548Z,18.36
2023-05-15T20:32:53.188Z,18.29
2023-05-15T20:35:22.208Z,18.17
2023-05-15T20:37:55.228Z,18.04
2023-05-15T20:40:18.367Z,17.98
2023-05-15T20:42:53.477Z,17.95
2023-05-15T20:45:28.818Z,17.90
2023-05-15T20:48:02.839Z,17.89
2023-05-15T20:50:37.888Z,17.84
2023-05-15T20:53:10.903Z,17.83
2023-05-15T20:55:45.009Z,17.83
2023-05-15T20:58:18.658Z,17.83
2023-05-15T21:00:53.447Z,17.83
2023-05-15T21:03:16.019Z,17.84
2023-05-15T21:05:50.499Z,17.97
2023-05-15T21:08:23.448Z,18.05
2023-05-15T21:10:58.510Z,18.08
2023-05-15T21:13:33.025Z,18.17
2023-05-15T21:16:08.792Z,18.22
2023-05-15T21:18:43.504Z,18.33
2023-05-15T21:21:09.216Z,18.41
2023-05-15T21:23:42.994Z,18.54
2023-05-15T21:26:16.657Z,18.67
2023-05-15T21:28:50.665Z,18.75
2023-05-15T21:31:24.440Z,18.85
2023-05-15T21:33:57.793Z,18.94
2023-05-15T21:36:32.378Z,19.04
2023-05-15T21:38:59.801Z,19.13
2023-05-15T21:41:35.592Z,19.40
2023-05-15T21:44:09.220Z,19.70
2023-05-15T21:46:43.076Z,19.93
2023-05-15T21:49:05.861Z,20.03
2023-05-15T21:51:39.973Z,20.12
2023-05-15T21:54:13.663Z,20.18
2023-05-15T21:56:48.077Z,20.18
2023-05-15T21:59:22.734Z,20.10
2023-05-15T22:01:45.837Z,19.92
2023-05-15T22:04:19.809Z,19.78
2023-05-15T22:06:58.808Z,19.60
2023-05-15T22:09:32.969Z,19.46
2023-05-15T22:12:07.258Z,19.40
2023-05-15T22:14:54.569Z,19.42
2023-05-15T22:17:26.602Z,19.43
2023-05-15T22:20:08.422Z,19.44
2023-05-15T22:22:46.566Z,19.43
2023-05-15T22:25:21.598Z,19.34
2023-05-15T22:27:55.621Z,19.17
2023-05-15T22:30:29.930Z,19.08
2023-05-15T22:33:02.988Z,19.06
2023-05-15T22:35:38.253Z,19.05
2023-05-15T22:38:12.687Z,19.06
2023-05-15T22:40:46.059Z,19.13
2023-05-15T22:43:20.438Z,19.21
2023-05-15T22:45:55.837Z,19.15
2023-05-15T22:48:30.106Z,19.05
2023-05-15T22:51:03.667Z,19.03
2023-05-15T22:53:39.720Z,19.04
2023-05-15T22:56:15.221Z,18.90
2023-05-15T22:58:49.305Z,18.76
2023-05-15T23:01:23.692Z,18.69
2023-05-15T23:03:57.107Z,18.57
2023-05-15T23:06:35.907Z,18.41
2023-05-15T23:09:10.117Z,18.34
2023-05-15T23:11:44.979Z,18.32
2023-05-15T23:14:18.757Z,18.31
2023-05-15T23:22:29.074Z,18.08
2023-05-15T23:25:03.324Z,18.09
2023-05-15T23:27:36.418Z,18.04
2023-05-15T23:30:13.025Z,17.99
2023-05-15T23:32:46.966Z,17.91
2023-05-15T23:35:24.573Z,17.88
2023-05-15T23:37:58.271Z,17.84
2023-05-15T23:40:19.599Z,17.78
2023-05-15T23:42:42.248Z,17.68
2023-05-15T23:45:18.691Z,17.55
2023-05-15T23:47:54.004Z,17.39
2023-05-15T23:50:28.443Z,17.29
2023-05-15T23:53:03.075Z,17.25
2023-05-15T23:55:38.843Z,17.22
2023-05-15T23:58:13.082Z,17.22
